Latest Weather Observations for Montague Island

IDN60901

Issued at 12:05 am EST Thursday 2 October 2014 (issued every 10 minutes, with the page automatically refreshed every 10 minutes)

About weather observations | Map of Canberra area stations | Latest observations for Canberra area | Other Formats
Station Details ID: 069017 Name: MONTAGUE ISLAND LIGHTHOUSE Lat: -36.25 Lon: 150.23 Height: 52.0 m
Data from the previous 72 hours. | See also: Recent months at Montague Island
Date/Time
EST
Tmp

°C
App
Tmp
°C
Dew
Point
°C
Rel
Hum
%
Delta-T

°C
Wind Press
QNH
hPa
Press
MSL
hPa
Rain
since
9 am
mm
Dir
 
Spd
km/h
Gust
km/h
Spd
kts
Gust
kts
02/12:00am 12.3 6.7 3.3 54 4.0 SW 22 28 12 15 1022.0 1021.9 0.0
 
Date/Time
EST
Tmp

°C
App
Tmp
°C
Dew
Point
°C
Rel
Hum
%
Delta-T

°C
Wind Press
QNH
hPa
Press
MSL
hPa
Rain
since
9 am
mm
Dir
 
Spd
km/h
Gust
km/h
Spd
kts
Gust
kts
01/11:30pm 12.4 7.9 4.1 57 3.8 WSW 17 24 9 13 1022.1 1022.0 0.0
01/11:00pm 12.3 8.1 5.5 63 3.2 WSW 17 24 9 13 1022.5 1022.4 0.0
01/10:30pm 12.4 7.5 5.3 62 3.3 WSW 20 24 11 13 1022.6 1022.5 0.0
01/10:00pm 13.2 7.1 6.5 64 3.2 S 28 33 15 18 1022.4 1022.3 0.0
01/09:30pm 13.5 6.7 4.9 56 4.0 SSW 30 37 16 20 1022.1 1022.0 0.0
01/09:00pm 13.6 6.4 5.0 56 4.0 S 32 39 17 21 1022.1 1022.0 0.0
01/08:30pm 13.7 5.8 4.6 54 4.2 S 35 43 19 23 1021.7 1021.6 0.0
01/08:00pm 13.8 5.2 4.7 54 4.2 S 39 46 21 25 1021.4 1021.3 0.0
01/07:30pm 14.0 4.6 4.3 52 4.4 S 43 48 23 26 1020.9 1020.8 0.0
01/07:00pm 14.3 6.1 4.6 52 4.5 S 37 48 20 26 1020.5 1020.4 0.0
01/06:30pm 14.5 4.8 2.7 45 5.3 S 43 50 23 27 1020.1 1020.0 0.0
01/06:00pm 14.8 4.9 1.7 41 5.7 SSW 43 52 23 28 1019.8 1019.7 0.0
01/05:36pm 15.0 5.1 2.9 44 5.5 SSW 44 56 24 30 1019.5 1019.4 0.0
01/05:30pm 14.8 5.5 4.8 51 4.7 S 43 52 23 28 1019.6 1019.5 0.0
01/05:00pm 14.9 5.6 4.9 51 4.7 S 43 48 23 26 1019.3 1019.2 0.0
01/04:30pm 14.8 6.3 3.3 46 5.2 S 37 46 20 25 1019.1 1019.0 0.0
01/04:00pm 15.1 6.0 4.2 48 5.0 S 41 48 22 26 1018.9 1018.8 0.0
01/03:30pm 15.6 7.3 4.0 46 5.4 S 37 44 20 24 1019.0 1018.9 0.0
01/03:00pm 15.8 6.9 5.1 49 5.1 S 41 50 22 27 1018.6 1018.5 0.0
01/02:30pm 16.5 8.6 2.2 38 6.4 S 33 43 18 23 1018.4 1018.3 0.0
01/02:06pm 16.5 8.7 4.9 46 5.5 S 35 43 19 23 1018.7 1018.6 0.0
01/02:00pm 16.8 7.8 0.0 32 7.2 SW 37 54 20 29 1018.5 1018.4 0.0
01/01:57pm 16.8 8.2 0.5 33 7.1 SW 35 54 19 29 1018.3 1018.2 0.0
01/01:30pm 16.7 6.6 0.4 33 7.1 SSW 43 57 23 31 1018.3 1018.2 0.0
01/01:00pm 16.9 6.6 0.1 32 7.2 SW 44 54 24 29 1018.3 1018.2 0.0
01/12:30pm 17.0 5.7 1.4 35 6.9 SW 50 65 27 35 1018.1 1018.0 0.0
01/12:00pm 16.1 3.3 -0.2 33 6.9 SW 57 72 31 39 1018.0 1017.9 0.0
01/11:34am 16.2 5.2 0.7 35 6.7 SW 48 69 26 37 1017.7 1017.6 0.0
01/11:30am 16.1 5.5 0.7 35 6.7 SW 46 59 25 32 1017.8 1017.7 0.0
01/11:02am 16.1 4.4 1.0 36 6.6 SW 52 76 28 41 1017.7 1017.6 0.0
01/11:00am 16.1 4.3 0.7 35 6.7 SW 52 61 28 33 1017.7 1017.6 0.0
01/10:30am 15.3 1.8 0.3 36 6.4 SW 61 82 33 44 1017.8 1017.7 0.0
01/10:16am 15.5 3.9 2.0 40 6.0 SW 52 76 28 41 1017.6 1017.5 0.0
01/10:00am 15.2 2.4 -0.1 35 6.5 SW 57 74 31 40 1017.4 1017.3 0.0
01/09:40am 15.0 2.7 -0.3 35 6.4 SW 54 72 29 39 1017.1 1017.0 0.0
01/09:30am 15.1 3.5 -0.6 34 6.6 SW 50 65 27 35 1017.2 1017.1 0.0
01/09:01am 14.7 3.4 0.9 39 5.9 SW 50 70 27 38 1016.8 1016.7 0.0
01/09:00am 14.4 2.9 -0.1 37 6.1 WSW 50 65 27 35 1016.7 1016.6 0.0
01/08:30am 14.5 4.9 1.4 41 5.7 SW 41 52 22 28 1016.7 1016.6 0.0
01/08:04am 13.9 3.7 -0.2 38 5.9 WSW 43 63 23 34 1016.2 1016.1 0.0
01/08:00am 13.8 3.1 0.1 39 5.7 SW 46 61 25 33 1016.2 1016.1 0.0
01/07:35am 13.6 3.3 -0.8 37 5.9 WSW 43 67 23 36 1015.6 1015.5 0.0
01/07:30am 13.5 4.3 -1.6 35 6.1 WSW 37 48 20 26 1015.7 1015.6 0.0
01/07:00am 13.5 4.2 -2.4 33 6.3 SW 37 44 20 24 1015.5 1015.4 0.0
01/06:30am 13.3 4.7 -2.2 34 6.1 WSW 33 52 18 28 1014.7 1014.6 0.0
01/06:23am 13.2 4.5 -3.1 32 6.3 W 33 52 18 28 1014.5 1014.4 0.0
01/06:00am 12.9 4.9 -2.6 34 6.1 W 30 39 16 21 1013.8 1013.7 0.0
01/05:30am 12.2 4.4 1.5 48 4.6 WSW 32 37 17 20 1013.1 1013.0 0.0
01/05:00am 12.5 5.2 2.7 51 4.3 WSW 30 37 16 20 1012.5 1012.5 0.0
01/04:30am 12.9 5.6 4.3 56 3.9 SW 32 35 17 19 1011.7 1011.7 0.0
01/04:00am 12.9 7.1 6.3 64 3.1 SSW 26 32 14 17 1011.2 1011.2 0.0
01/03:30am 12.7 7.5 5.4 61 3.4 SSW 22 28 12 15 1010.6 1010.6 0.0
01/03:00am 13.0 7.5 5.7 61 3.4 SW 24 32 13 17 1010.2 1010.2 0.0
01/02:30am 13.1 5.3 6.7 65 3.1 SW 37 44 20 24 1009.7 1009.7 0.0
01/02:00am 12.9 5.3 7.6 70 2.6 SW 37 46 20 25 1009.2 1009.2 0.0
01/01:30am 12.7 4.0 7.8 72 2.4 SW 43 52 23 28 1009.0 1009.0 0.0
01/01:00am 12.4 1.7 8.1 75 2.1 SW 54 67 29 36 1008.1 1008.1 0.0
01/12:39am 12.4 2.2 8.5 77 1.9 SW 52 63 28 34 1007.7 1007.7 0.0
01/12:30am 12.5 -1.5 8.6 77 1.9 SW 72 85 39 46 1007.2 1007.2 0.0
01/12:00am 12.5 -1.1 7.8 73 2.3 SSW 69 85 37 46 1007.1 1007.1 0.0
 
Date/Time
EST
Tmp

°C
App
Tmp
°C
Dew
Point
°C
Rel
Hum
%
Delta-T

°C
Wind Press
QNH
hPa
Press
MSL
hPa
Rain
since
9 am
mm
Dir
 
Spd
km/h
Gust
km/h
Spd
kts
Gust
kts
30/11:42pm 13.4 0.9 9.1 75 2.2 S 65 83 35 45 1007.1 1007.1 0.0
30/11:30pm 13.4 -0.1 8.3 71 2.5 S 69 87 37 47 1006.5 1006.5 0.0
30/11:23pm 13.6 1.9 8.0 69 2.8 S 59 83 32 45 1006.4 1006.4 0.0
30/11:00pm 14.1 2.9 9.9 76 2.2 SSE 59 70 32 38 1006.5 1006.5 0.0
30/10:30pm 14.6 3.8 11.2 80 1.8 SSE 59 70 32 38 1005.9 1005.9 0.0
30/10:19pm 15.1 3.1 10.9 76 2.2 SSE 65 70 35 38 1005.9 1005.9 0.0
30/10:10pm 18.1 9.6 8.7 54 4.9 SSE 43 57 23 31 1006.0 1006.0 0.0
30/10:00pm 22.8 17.9 2.3 26 9.7 W 17 24 9 13 1005.5 1005.5 0.0
30/09:30pm 22.5 17.6 5.0 32 8.7 W 20 33 11 18 1005.2 1005.2 0.0
30/09:00pm 22.4 18.1 3.0 28 9.3 WNW 15 20 8 11 1005.0 1005.0 0.0
30/08:30pm 22.3 17.3 3.4 29 9.1 NW 19 24 10 13 1004.5 1004.5 0.0
30/08:00pm 23.0 18.5 4.0 29 9.3 NNW 17 24 9 13 1004.6 1004.6 0.0
30/07:30pm 24.1 18.0 2.9 25 10.2 NW 24 41 13 22 1004.5 1004.5 0.0
30/07:00pm 23.8 17.3 2.6 25 10.2 WNW 26 30 14 16 1004.5 1004.5 0.0
30/06:41pm 23.8 17.0 3.2 26 10.0 WNW 28 44 15 24 1004.1 1004.1 0.0
30/06:30pm 22.8 19.0 7.4 37 8.0 NW 17 22 9 12 1004.1 1004.1 0.0
30/06:00pm 24.2 17.5 5.5 30 9.5 NW 30 39 16 21 1003.5 1003.5 0.0
30/05:30pm 24.5 16.2 6.3 31 9.4 NNW 39 46 21 25 1002.9 1002.9 0.0
30/05:00pm 24.4 17.2 7.5 34 8.9 NW 35 50 19 27 1002.6 1002.6 0.0
30/04:52pm 24.3 17.2 7.9 35 8.7 NNW 35 46 19 25 1002.6 1002.6 0.0
30/04:30pm 25.3 21.5 7.4 32 9.5 NW 17 26 9 14 1002.6 1002.6 0.0
30/04:00pm 25.7 21.5 8.2 33 9.4 N 20 28 11 15 1002.3 1002.2 0.0
30/03:30pm 23.7 19.6 10.0 42 7.5 NNE 22 26 12 14 1002.6 1002.6 0.0
30/03:00pm 22.9 21.3 12.8 53 5.8 NE 13 20 7 11 1003.0 1003.0 0.0
30/02:30pm 21.8 20.4 13.4 59 4.8 NE 13 20 7 11 1003.7 1003.7 0.0
30/02:00pm 21.2 19.7 14.1 64 4.1 ENE 15 19 8 10 1004.3 1004.3 0.0
30/01:30pm 20.9 18.6 14.1 65 4.0 NE 19 24 10 13 1004.8 1004.8 0.0
30/01:00pm 21.3 17.3 14.0 63 4.3 NE 28 35 15 19 1005.2 1005.2 0.0
30/12:30pm 21.4 17.4 14.1 63 4.3 NNE 28 35 15 19 1006.0 1006.0 0.0
30/12:00pm 22.1 18.0 12.6 55 5.4 N 26 35 14 19 1006.6 1006.6 0.0
30/11:30am 20.0 17.6 12.7 63 4.1 NNE 17 19 9 10 1007.3 1007.3 0.0
30/11:00am 20.0 18.9 12.0 60 4.5 NNE 9 13 5 7 1008.1 1008.1 0.0
30/10:30am 19.4 18.1 11.4 60 4.4 NNE 9 13 5 7 1008.5 1008.5 0.0
30/10:00am 20.3 19.9 12.5 61 4.4 N 6 9 3 5 1009.2 1009.2 0.0
30/09:30am 18.9 17.5 12.2 65 3.7 N 11 17 6 9 1009.3 1009.3 0.0
30/09:00am 17.8 16.0 12.0 69 3.2 N 13 19 7 10 1009.8 1009.8 0.0
30/08:30am 17.0 14.7 11.7 71 2.9 N 15 24 8 13 1010.0 1010.0 0.0
30/08:00am 16.0 12.9 11.6 75 2.4 N 19 28 10 15 1010.1 1010.1 0.0
30/07:30am 15.3 12.1 11.9 80 1.8 N 20 28 11 15 1010.2 1010.2 0.0
30/07:00am 15.0 11.9 12.1 83 1.6 N 20 26 11 14 1010.2 1010.2 0.0
30/06:30am 14.6 11.5 12.1 85 1.4 N 20 28 11 15 1010.3 1010.3 0.0
30/06:00am 13.9 10.8 12.1 89 1.0 N 20 24 11 13 1010.4 1010.4 0.0
30/05:30am 13.4 11.9 11.8 90 0.9 NNW 11 17 6 9 1010.6 1010.6 0.0
30/05:00am 13.3 12.1 11.7 90 0.9 WNW 9 13 5 7 1010.5 1010.5 0.0
30/04:30am 13.2 12.1 11.8 91 0.7 WNW 9 13 5 7 1010.6 1010.6 0.0
30/04:00am 13.2 11.7 11.8 91 0.8 NW 11 15 6 8 1010.6 1010.6 0.0
30/03:30am 13.3 11.8 11.9 91 0.8 NW 11 13 6 7 1011.0 1011.0 0.0
30/03:00am 13.4 11.9 12.0 91 0.8 NW 11 13 6 7 1011.2 1011.2 0.0
30/02:30am 13.7 12.4 12.4 92 0.7 NW 11 13 6 7 1011.3 1011.3 0.0
30/02:00am 13.7 12.3 12.3 91 0.8 NNW 11 13 6 7 1011.6 1011.6 0.0
30/01:30am 14.1 13.3 12.8 92 0.7 NNW 9 11 5 6 1012.1 1012.1 0.0
30/01:00am 14.2 13.5 13.1 93 0.6 N 9 11 5 6 1012.4 1012.4 0.0
30/12:30am 14.0 13.1 12.7 92 0.7 NW 9 11 5 6 1012.7 1012.7 0.0
30/12:00am 14.2 13.0 12.8 91 0.8 NW 11 13 6 7 1013.1 1013.0 0.0
 
Date/Time
EST
Tmp

°C
App
Tmp
°C
Dew
Point
°C
Rel
Hum
%
Delta-T

°C
Wind Press
QNH
hPa
Press
MSL
hPa
Rain
since
9 am
mm
Dir
 
Spd
km/h
Gust
km/h
Spd
kts
Gust
kts
29/11:30pm 14.6 13.5 13.0 90 0.9 N 11 15 6 8 1013.4 1013.3 0.0
29/11:00pm 14.6 13.4 12.8 89 1.0 NNW 11 13 6 7 1013.8 1013.7 0.0
29/10:30pm 15.0 13.5 13.2 89 1.0 NNW 13 15 7 8 1014.2 1014.1 0.0
29/10:00pm 15.4 14.3 13.1 86 1.3 NNW 11 13 6 7 1014.5 1014.4 0.0
29/09:30pm 15.6 14.2 13.3 86 1.3 NNW 13 17 7 9 1014.7 1014.6 0.0
29/09:00pm 15.9 14.5 13.4 85 1.4 NNW 13 17 7 9 1014.9 1014.8 0.0
29/08:30pm 15.8 13.8 12.7 82 1.7 N 15 19 8 10 1015.2 1015.1 0.0
29/08:00pm 15.7 13.6 12.3 80 1.9 N 15 17 8 9 1015.3 1015.2 0.0
29/07:30pm 15.8 13.7 12.4 80 1.9 N 15 17 8 9 1015.2 1015.1 0.0
29/07:00pm 15.9 13.7 12.1 78 2.1 N 15 17 8 9 1015.1 1015.0 0.0
29/06:30pm 16.0 14.6 12.2 78 2.1 N 11 13 6 7 1014.9 1014.8 0.0
29/06:00pm 16.2 15.2 12.2 77 2.2 NNE 9 13 5 7 1014.7 1014.6 0.0
29/05:30pm 16.2 15.4 11.8 75 2.4 ENE 7 9 4 5 1014.5 1014.4 0.0
29/05:00pm 16.4 15.3 12.0 75 2.4 E 9 11 5 6 1014.2 1014.1 0.0
29/04:30pm 16.6 14.8 12.2 75 2.4 E 13 17 7 9 1014.0 1013.9 0.0
29/04:00pm 16.8 13.7 11.7 72 2.8 ESE 19 22 10 12 1013.7 1013.6 0.0
29/03:30pm 17.1 13.9 11.8 71 2.9 ESE 20 24 11 13 1013.4 1013.3 0.0
29/03:00pm 17.4 13.4 11.7 69 3.1 ESE 24 28 13 15 1013.2 1013.1 0.0
29/02:30pm 17.8 14.0 12.3 70 3.1 SE 24 32 13 17 1012.8 1012.8 0.0
29/02:00pm 17.9 12.8 11.9 68 3.3 SE 30 35 16 19 1012.6 1012.6 0.0
29/01:30pm 18.1 13.3 11.7 66 3.5 SE 28 33 15 18 1012.5 1012.5 0.0
29/01:00pm 18.2 13.2 10.8 62 4.0 SE 28 33 15 18 1012.3 1012.3 0.0
29/12:30pm 19.0 14.6 11.8 63 4.0 SE 26 32 14 17 1012.3 1012.3 0.0
29/12:00pm 18.9 15.0 10.7 59 4.4 SE 22 28 12 15 1012.6 1012.6 0.0
29/11:30am 18.9 15.5 11.2 61 4.2 SE 20 24 11 13 1012.8 1012.8 0.0
29/11:00am 19.4 15.9 12.2 63 4.0 SE 22 26 12 14 1013.1 1013.0 0.0
29/10:30am 18.7 14.4 12.0 65 3.7 SE 26 30 14 16 1012.8 1012.8 0.0
29/10:00am 18.5 13.6 12.7 69 3.3 SE 30 37 16 20 1012.6 1012.6 0.0
29/09:30am 18.5 14.1 14.0 75 2.6 ESE 30 35 16 19 1012.3 1012.3 0.0
29/09:00am 18.0 12.0 13.3 74 2.7 ESE 37 43 20 23 1012.2 1012.2 0.0
29/08:38am 19.9 14.9 11.1 57 4.8 SE 28 44 15 24 1012.1 1012.1 0.0
29/08:30am 22.1 20.4 8.2 41 7.3 W 7 11 4 6 1012.0 1012.0 0.0
29/08:00am 20.3 14.8 10.4 53 5.4 N 30 39 16 21 1011.0 1011.0 0.0
29/07:30am 19.6 15.8 12.4 63 4.0 NNW 24 32 13 17 1010.8 1010.8 0.0
29/07:00am 20.0 13.9 9.6 51 5.6 NNW 32 39 17 21 1010.4 1010.4 0.0
29/06:30am 20.1 12.8 8.8 48 5.9 NNW 37 43 20 23 1009.9 1009.9 0.0
29/06:00am 19.0 14.1 9.8 55 4.9 NW 26 33 14 18 1009.7 1009.7 0.0
29/05:30am 19.5 15.6 8.8 50 5.6 NNW 19 28 10 15 1009.1 1009.1 0.0
29/05:00am 19.9 14.7 8.9 49 5.8 N 26 35 14 19 1008.3 1008.3 0.0
29/04:30am 19.3 15.6 10.0 55 5.0 N 20 24 11 13 1008.3 1008.3 0.0
29/04:00am 19.9 17.8 9.8 52 5.4 NNE 11 15 6 8 1008.6 1008.6 0.0
29/03:30am 19.3 16.1 11.1 59 4.5 N 19 22 10 12 1008.5 1008.5 0.0
29/03:00am 19.0 15.6 12.5 66 3.6 N 22 30 12 16 1008.5 1008.5 0.0
29/02:30am 18.4 14.6 13.7 74 2.7 NNE 26 33 14 18 1008.9 1008.9 0.0
29/02:00am 18.6 14.1 13.7 73 2.8 NNE 30 35 16 19 1009.2 1009.2 0.0
29/01:30am 18.8 12.5 13.4 71 3.1 NNE 39 46 21 25 1009.2 1009.2 0.0
29/01:00am 18.7 12.9 13.8 73 2.8 N 37 46 20 25 1009.3 1009.3 0.0
29/12:30am 18.7 13.0 14.2 75 2.6 N 37 46 20 25 1009.6 1009.6 0.0

Latest Capital City Observations: Canberra | Sydney | Melbourne | Brisbane | Adelaide | Perth | Hobart | Darwin

Other Formats:

Comma delimited format used in spreadsheet applications
http://www.bom.gov.au/fwo/IDN60903/IDN60903.94939.axf

JavaScript Object Notation format (JSON) in row-major order
http://www.bom.gov.au/fwo/IDN60903/IDN60903.94939.json